sensor_id;sensor_type;location;lat;lon;timestamp;P1;durP1;ratioP1;P2;durP2;ratioP2
16979;SDS011;42288;52.182;21.156;2024-03-06T00:02:00;103.33;;;38.37;;
16979;SDS011;42288;52.182;21.156;2024-03-06T00:04:26;153.73;;;52.97;;
16979;SDS011;42288;52.182;21.156;2024-03-06T00:06:51;103.63;;;42.67;;
16979;SDS011;42288;52.182;21.156;2024-03-06T00:09:18;118.53;;;41.57;;
16979;SDS011;42288;52.182;21.156;2024-03-06T00:11:44;122.63;;;44.20;;
16979;SDS011;42288;52.182;21.156;2024-03-06T00:14:10;112.10;;;41.60;;
16979;SDS011;42288;52.182;21.156;2024-03-06T00:16:37;101.97;;;42.17;;
16979;SDS011;42288;52.182;21.156;2024-03-06T00:19:03;93.40;;;38.77;;
16979;SDS011;42288;52.182;21.156;2024-03-06T00:21:29;94.73;;;39.50;;
16979;SDS011;42288;52.182;21.156;2024-03-06T00:23:55;82.40;;;33.30;;
16979;SDS011;42288;52.182;21.156;2024-03-06T00:26:21;84.93;;;35.03;;
16979;SDS011;42288;52.182;21.156;2024-03-06T00:28:46;100.20;;;39.07;;
16979;SDS011;42288;52.182;21.156;2024-03-06T00:31:12;107.33;;;39.33;;
16979;SDS011;42288;52.182;21.156;2024-03-06T00:33:38;113.10;;;39.57;;
16979;SDS011;42288;52.182;21.156;2024-03-06T00:36:05;102.43;;;39.40;;
16979;SDS011;42288;52.182;21.156;2024-03-06T00:38:31;100.27;;;37.77;;
16979;SDS011;42288;52.182;21.156;2024-03-06T00:40:56;104.33;;;40.57;;
16979;SDS011;42288;52.182;21.156;2024-03-06T00:43:22;89.50;;;37.33;;
16979;SDS011;42288;52.182;21.156;2024-03-06T00:45:48;101.80;;;38.13;;
16979;SDS011;42288;52.182;21.156;2024-03-06T00:48:14;95.03;;;36.40;;
16979;SDS011;42288;52.182;21.156;2024-03-06T00:50:39;89.43;;;37.63;;
16979;SDS011;42288;52.182;21.156;2024-03-06T00:53:05;96.53;;;38.37;;
16979;SDS011;42288;52.182;21.156;2024-03-06T00:55:31;90.70;;;36.57;;
16979;SDS011;42288;52.182;21.156;2024-03-06T00:57:57;98.77;;;39.30;;
16979;SDS011;42288;52.182;21.156;2024-03-06T01:00:23;86.57;;;36.40;;
16979;SDS011;42288;52.182;21.156;2024-03-06T01:02:48;86.37;;;35.50;;
16979;SDS011;42288;52.182;21.156;2024-03-06T01:05:14;89.57;;;37.40;;
16979;SDS011;42288;52.182;21.156;2024-03-06T01:07:40;75.57;;;33.33;;
16979;SDS011;42288;52.182;21.156;2024-03-06T01:10:06;92.60;;;37.13;;
16979;SDS011;42288;52.182;21.156;2024-03-06T01:12:34;75.70;;;33.43;;
16979;SDS011;42288;52.182;21.156;2024-03-06T01:14:59;79.80;;;34.00;;
16979;SDS011;42288;52.182;21.156;2024-03-06T01:17:25;76.93;;;33.03;;
16979;SDS011;42288;52.182;21.156;2024-03-06T01:19:51;69.57;;;32.03;;
16979;SDS011;42288;52.182;21.156;2024-03-06T01:22:17;79.37;;;33.50;;
16979;SDS011;42288;52.182;21.156;2024-03-06T01:24:43;64.93;;;30.23;;
16979;SDS011;42288;52.182;21.156;2024-03-06T01:27:09;72.83;;;32.03;;
16979;SDS011;42288;52.182;21.156;2024-03-06T01:29:34;66.13;;;30.90;;
16979;SDS011;42288;52.182;21.156;2024-03-06T01:32:00;73.00;;;29.63;;
16979;SDS011;42288;52.182;21.156;2024-03-06T01:34:26;65.97;;;29.90;;
16979;SDS011;42288;52.182;21.156;2024-03-06T01:36:52;56.20;;;24.50;;
16979;SDS011;42288;52.182;21.156;2024-03-06T01:39:18;56.37;;;27.27;;
16979;SDS011;42288;52.182;21.156;2024-03-06T01:41:47;68.63;;;29.87;;
16979;SDS011;42288;52.182;21.156;2024-03-06T01:44:14;61.97;;;28.73;;
16979;SDS011;42288;52.182;21.156;2024-03-06T01:46:40;57.47;;;28.27;;
16979;SDS011;42288;52.182;21.156;2024-03-06T01:49:06;56.90;;;24.17;;
16979;SDS011;42288;52.182;21.156;2024-03-06T01:51:32;63.93;;;27.83;;
16979;SDS011;42288;52.182;21.156;2024-03-06T01:53:58;58.80;;;26.20;;
16979;SDS011;42288;52.182;21.156;2024-03-06T01:56:28;51.73;;;25.20;;
16979;SDS011;42288;52.182;21.156;2024-03-06T01:58:54;53.53;;;25.33;;
16979;SDS011;42288;52.182;21.156;2024-03-06T02:01:20;52.60;;;24.57;;
16979;SDS011;42288;52.182;21.156;2024-03-06T02:03:47;54.50;;;26.23;;
16979;SDS011;42288;52.182;21.156;2024-03-06T02:06:13;42.87;;;21.70;;
16979;SDS011;42288;52.182;21.156;2024-03-06T02:08:40;46.90;;;22.77;;
16979;SDS011;42288;52.182;21.156;2024-03-06T02:11:06;49.13;;;23.53;;
16979;SDS011;42288;52.182;21.156;2024-03-06T02:13:32;46.83;;;23.50;;
16979;SDS011;42288;52.182;21.156;2024-03-06T02:15:58;51.27;;;22.40;;
16979;SDS011;42288;52.182;21.156;2024-03-06T02:18:24;40.13;;;20.87;;
16979;SDS011;42288;52.182;21.156;2024-03-06T02:20:50;49.53;;;22.77;;
16979;SDS011;42288;52.182;21.156;2024-03-06T02:23:16;51.00;;;24.40;;
16979;SDS011;42288;52.182;21.156;2024-03-06T02:25:44;47.53;;;22.73;;
16979;SDS011;42288;52.182;21.156;2024-03-06T02:28:12;48.70;;;22.53;;
16979;SDS011;42288;52.182;21.156;2024-03-06T02:30:38;45.67;;;22.63;;
16979;SDS011;42288;52.182;21.156;2024-03-06T02:33:04;42.73;;;21.57;;
16979;SDS011;42288;52.182;21.156;2024-03-06T02:35:31;51.30;;;22.67;;
16979;SDS011;42288;52.182;21.156;2024-03-06T02:37:58;44.27;;;22.37;;
16979;SDS011;42288;52.182;21.156;2024-03-06T02:40:24;47.33;;;22.73;;
16979;SDS011;42288;52.182;21.156;2024-03-06T02:42:50;39.27;;;21.37;;
16979;SDS011;42288;52.182;21.156;2024-03-06T02:45:16;38.93;;;20.53;;
16979;SDS011;42288;52.182;21.156;2024-03-06T02:47:41;42.87;;;22.23;;
16979;SDS011;42288;52.182;21.156;2024-03-06T02:50:09;38.97;;;20.23;;
16979;SDS011;42288;52.182;21.156;2024-03-06T02:52:35;42.50;;;21.53;;
16979;SDS011;42288;52.182;21.156;2024-03-06T02:55:01;41.33;;;20.53;;
16979;SDS011;42288;52.182;21.156;2024-03-06T02:57:27;48.37;;;21.10;;
16979;SDS011;42288;52.182;21.156;2024-03-06T02:59:53;48.00;;;21.23;;
16979;SDS011;42288;52.182;21.156;2024-03-06T03:02:22;35.13;;;18.70;;
16979;SDS011;42288;52.182;21.156;2024-03-06T03:04:49;37.80;;;18.27;;
16979;SDS011;42288;52.182;21.156;2024-03-06T03:07:15;41.37;;;18.43;;
16979;SDS011;42288;52.182;21.156;2024-03-06T03:09:40;38.30;;;19.23;;
16979;SDS011;42288;52.182;21.156;2024-03-06T03:12:06;39.03;;;18.17;;
16979;SDS011;42288;52.182;21.156;2024-03-06T03:14:32;37.30;;;19.23;;
16979;SDS011;42288;52.182;21.156;2024-03-06T03:16:59;37.67;;;19.13;;
16979;SDS011;42288;52.182;21.156;2024-03-06T03:19:27;41.00;;;19.33;;
16979;SDS011;42288;52.182;21.156;2024-03-06T03:21:53;42.33;;;18.53;;
16979;SDS011;42288;52.182;21.156;2024-03-06T03:24:18;42.93;;;20.17;;
16979;SDS011;42288;52.182;21.156;2024-03-06T03:26:46;42.40;;;19.13;;
16979;SDS011;42288;52.182;21.156;2024-03-06T03:29:11;39.03;;;18.93;;
16979;SDS011;42288;52.182;21.156;2024-03-06T03:31:37;35.33;;;18.00;;
16979;SDS011;42288;52.182;21.156;2024-03-06T03:34:03;38.00;;;18.70;;
16979;SDS011;42288;52.182;21.156;2024-03-06T03:36:30;36.13;;;18.63;;
16979;SDS011;42288;52.182;21.156;2024-03-06T03:38:56;36.90;;;18.57;;
16979;SDS011;42288;52.182;21.156;2024-03-06T03:41:21;30.00;;;15.70;;
16979;SDS011;42288;52.182;21.156;2024-03-06T03:43:47;42.10;;;19.57;;
16979;SDS011;42288;52.182;21.156;2024-03-06T03:46:14;37.03;;;17.13;;
16979;SDS011;42288;52.182;21.156;2024-03-06T03:48:39;36.20;;;18.37;;
16979;SDS011;42288;52.182;21.156;2024-03-06T03:51:05;41.93;;;19.37;;
16979;SDS011;42288;52.182;21.156;2024-03-06T03:53:35;30.10;;;17.47;;
16979;SDS011;42288;52.182;21.156;2024-03-06T03:56:01;35.80;;;18.27;;
16979;SDS011;42288;52.182;21.156;2024-03-06T03:58:28;35.30;;;17.20;;
16979;SDS011;42288;52.182;21.156;2024-03-06T04:00:53;37.43;;;19.37;;
16979;SDS011;42288;52.182;21.156;2024-03-06T04:03:20;38.93;;;19.47;;
16979;SDS011;42288;52.182;21.156;2024-03-06T04:05:47;39.67;;;19.07;;
16979;SDS011;42288;52.182;21.156;2024-03-06T04:08:13;41.63;;;18.93;;
16979;SDS011;42288;52.182;21.156;2024-03-06T04:10:39;33.93;;;17.13;;
16979;SDS011;42288;52.182;21.156;2024-03-06T04:13:04;37.43;;;17.90;;
16979;SDS011;42288;52.182;21.156;2024-03-06T04:15:32;38.40;;;18.30;;
16979;SDS011;42288;52.182;21.156;2024-03-06T04:17:58;30.80;;;16.63;;
16979;SDS011;42288;52.182;21.156;2024-03-06T04:20:24;36.67;;;17.60;;
16979;SDS011;42288;52.182;21.156;2024-03-06T04:22:49;39.70;;;17.60;;
16979;SDS011;42288;52.182;21.156;2024-03-06T04:25:16;35.67;;;17.53;;
16979;SDS011;42288;52.182;21.156;2024-03-06T04:27:42;38.03;;;19.30;;
16979;SDS011;42288;52.182;21.156;2024-03-06T04:30:08;33.10;;;17.27;;
16979;SDS011;42288;52.182;21.156;2024-03-06T04:32:34;39.97;;;18.70;;
16979;SDS011;42288;52.182;21.156;2024-03-06T04:35:00;38.17;;;18.73;;
16979;SDS011;42288;52.182;21.156;2024-03-06T04:37:25;38.57;;;19.73;;
16979;SDS011;42288;52.182;21.156;2024-03-06T04:39:51;35.50;;;17.07;;
16979;SDS011;42288;52.182;21.156;2024-03-06T04:42:17;39.70;;;19.70;;
16979;SDS011;42288;52.182;21.156;2024-03-06T04:44:44;34.93;;;17.90;;
16979;SDS011;42288;52.182;21.156;2024-03-06T04:47:10;41.73;;;20.03;;
16979;SDS011;42288;52.182;21.156;2024-03-06T04:49:36;35.83;;;18.13;;
16979;SDS011;42288;52.182;21.156;2024-03-06T04:52:02;36.17;;;17.97;;
16979;SDS011;42288;52.182;21.156;2024-03-06T04:54:28;31.87;;;16.33;;
16979;SDS011;42288;52.182;21.156;2024-03-06T04:56:54;35.43;;;17.50;;
16979;SDS011;42288;52.182;21.156;2024-03-06T04:59:20;34.63;;;18.43;;
16979;SDS011;42288;52.182;21.156;2024-03-06T05:01:46;33.37;;;19.20;;
16979;SDS011;42288;52.182;21.156;2024-03-06T05:04:11;42.50;;;18.43;;
16979;SDS011;42288;52.182;21.156;2024-03-06T05:06:37;40.40;;;19.00;;
16979;SDS011;42288;52.182;21.156;2024-03-06T05:09:03;34.60;;;16.63;;
16979;SDS011;42288;52.182;21.156;2024-03-06T05:11:29;37.40;;;19.17;;
16979;SDS011;42288;52.182;21.156;2024-03-06T05:13:57;35.40;;;18.03;;
16979;SDS011;42288;52.182;21.156;2024-03-06T05:16:26;34.53;;;18.23;;
16979;SDS011;42288;52.182;21.156;2024-03-06T05:18:52;37.40;;;17.80;;
16979;SDS011;42288;52.182;21.156;2024-03-06T05:21:18;35.93;;;19.23;;
16979;SDS011;42288;52.182;21.156;2024-03-06T05:23:44;41.20;;;19.17;;
16979;SDS011;42288;52.182;21.156;2024-03-06T05:26:10;41.10;;;19.57;;
16979;SDS011;42288;52.182;21.156;2024-03-06T05:28:36;41.63;;;18.10;;
16979;SDS011;42288;52.182;21.156;2024-03-06T05:31:13;44.03;;;21.27;;
16979;SDS011;42288;52.182;21.156;2024-03-06T05:33:46;33.40;;;17.10;;
16979;SDS011;42288;52.182;21.156;2024-03-06T05:36:13;43.73;;;19.83;;
16979;SDS011;42288;52.182;21.156;2024-03-06T05:38:39;39.60;;;16.83;;
16979;SDS011;42288;52.182;21.156;2024-03-06T05:41:06;32.83;;;15.07;;
16979;SDS011;42288;52.182;21.156;2024-03-06T05:43:31;37.10;;;18.67;;
16979;SDS011;42288;52.182;21.156;2024-03-06T05:45:57;36.40;;;17.30;;
16979;SDS011;42288;52.182;21.156;2024-03-06T05:48:23;36.27;;;18.33;;
16979;SDS011;42288;52.182;21.156;2024-03-06T05:50:49;40.47;;;18.03;;
16979;SDS011;42288;52.182;21.156;2024-03-06T05:53:14;36.87;;;17.10;;
16979;SDS011;42288;52.182;21.156;2024-03-06T05:55:40;40.63;;;17.47;;
16979;SDS011;42288;52.182;21.156;2024-03-06T05:58:06;35.27;;;16.80;;
16979;SDS011;42288;52.182;21.156;2024-03-06T06:00:31;34.53;;;15.67;;
16979;SDS011;42288;52.182;21.156;2024-03-06T06:02:58;37.30;;;17.77;;
16979;SDS011;42288;52.182;21.156;2024-03-06T06:05:24;28.70;;;15.97;;
16979;SDS011;42288;52.182;21.156;2024-03-06T06:07:50;35.13;;;15.40;;
16979;SDS011;42288;52.182;21.156;2024-03-06T06:10:16;34.10;;;16.80;;
16979;SDS011;42288;52.182;21.156;2024-03-06T06:12:42;33.47;;;15.37;;
16979;SDS011;42288;52.182;21.156;2024-03-06T06:15:08;29.57;;;15.00;;
16979;SDS011;42288;52.182;21.156;2024-03-06T06:17:34;33.33;;;14.97;;
16979;SDS011;42288;52.182;21.156;2024-03-06T06:19:59;30.73;;;14.47;;
16979;SDS011;42288;52.182;21.156;2024-03-06T06:22:28;29.70;;;15.13;;
16979;SDS011;42288;52.182;21.156;2024-03-06T06:24:54;33.53;;;15.30;;
16979;SDS011;42288;52.182;21.156;2024-03-06T06:27:20;29.30;;;14.83;;
16979;SDS011;42288;52.182;21.156;2024-03-06T06:29:46;38.57;;;15.63;;
16979;SDS011;42288;52.182;21.156;2024-03-06T06:32:12;27.23;;;15.50;;
16979;SDS011;42288;52.182;21.156;2024-03-06T06:34:37;31.57;;;14.63;;
16979;SDS011;42288;52.182;21.156;2024-03-06T06:37:03;27.67;;;13.97;;
16979;SDS011;42288;52.182;21.156;2024-03-06T06:39:29;30.10;;;14.10;;
16979;SDS011;42288;52.182;21.156;2024-03-06T06:41:54;31.97;;;15.17;;
16979;SDS011;42288;52.182;21.156;2024-03-06T06:44:20;30.73;;;14.97;;
16979;SDS011;42288;52.182;21.156;2024-03-06T06:46:45;29.60;;;13.47;;
16979;SDS011;42288;52.182;21.156;2024-03-06T06:49:11;29.33;;;13.63;;
16979;SDS011;42288;52.182;21.156;2024-03-06T06:51:37;24.73;;;12.93;;
16979;SDS011;42288;52.182;21.156;2024-03-06T06:54:03;30.80;;;14.00;;
16979;SDS011;42288;52.182;21.156;2024-03-06T06:56:29;30.60;;;13.87;;
16979;SDS011;42288;52.182;21.156;2024-03-06T06:58:55;31.30;;;14.00;;
16979;SDS011;42288;52.182;21.156;2024-03-06T07:01:21;25.50;;;12.00;;
16979;SDS011;42288;52.182;21.156;2024-03-06T07:03:47;27.63;;;12.80;;
16979;SDS011;42288;52.182;21.156;2024-03-06T07:06:13;23.07;;;11.80;;
16979;SDS011;42288;52.182;21.156;2024-03-06T07:08:38;30.30;;;13.07;;
16979;SDS011;42288;52.182;21.156;2024-03-06T07:11:04;27.63;;;11.63;;
16979;SDS011;42288;52.182;21.156;2024-03-06T07:13:30;31.13;;;13.20;;
16979;SDS011;42288;52.182;21.156;2024-03-06T07:15:55;29.63;;;13.77;;
16979;SDS011;42288;52.182;21.156;2024-03-06T07:18:21;25.77;;;12.73;;
16979;SDS011;42288;52.182;21.156;2024-03-06T07:20:47;27.80;;;12.47;;
16979;SDS011;42288;52.182;21.156;2024-03-06T07:23:13;24.33;;;12.80;;
16979;SDS011;42288;52.182;21.156;2024-03-06T07:25:38;26.83;;;13.53;;
16979;SDS011;42288;52.182;21.156;2024-03-06T07:28:04;23.90;;;13.10;;
16979;SDS011;42288;52.182;21.156;2024-03-06T07:30:30;27.07;;;12.80;;
16979;SDS011;42288;52.182;21.156;2024-03-06T07:32:56;25.57;;;12.27;;
16979;SDS011;42288;52.182;21.156;2024-03-06T07:35:22;23.50;;;11.40;;
16979;SDS011;42288;52.182;21.156;2024-03-06T07:37:48;19.47;;;10.77;;
16979;SDS011;42288;52.182;21.156;2024-03-06T07:40:14;22.60;;;11.17;;
16979;SDS011;42288;52.182;21.156;2024-03-06T07:42:40;22.90;;;11.60;;
16979;SDS011;42288;52.182;21.156;2024-03-06T07:45:06;26.40;;;12.60;;
16979;SDS011;42288;52.182;21.156;2024-03-06T07:47:34;30.00;;;11.60;;
16979;SDS011;42288;52.182;21.156;2024-03-06T07:50:02;25.73;;;11.67;;
16979;SDS011;42288;52.182;21.156;2024-03-06T07:52:30;21.83;;;11.83;;
16979;SDS011;42288;52.182;21.156;2024-03-06T07:54:56;26.23;;;12.53;;
16979;SDS011;42288;52.182;21.156;2024-03-06T07:57:23;27.10;;;13.70;;
16979;SDS011;42288;52.182;21.156;2024-03-06T07:59:48;21.87;;;12.53;;
16979;SDS011;42288;52.182;21.156;2024-03-06T08:02:16;23.07;;;11.57;;
16979;SDS011;42288;52.182;21.156;2024-03-06T08:04:42;26.07;;;11.50;;
16979;SDS011;42288;52.182;21.156;2024-03-06T08:07:08;27.23;;;12.87;;
16979;SDS011;42288;52.182;21.156;2024-03-06T08:09:33;28.20;;;12.77;;
16979;SDS011;42288;52.182;21.156;2024-03-06T08:11:59;29.87;;;12.80;;
16979;SDS011;42288;52.182;21.156;2024-03-06T08:14:25;28.13;;;13.70;;
16979;SDS011;42288;52.182;21.156;2024-03-06T08:16:52;28.87;;;13.40;;
16979;SDS011;42288;52.182;21.156;2024-03-06T08:19:19;24.97;;;12.33;;
16979;SDS011;42288;52.182;21.156;2024-03-06T08:21:44;30.83;;;14.73;;
16979;SDS011;42288;52.182;21.156;2024-03-06T08:24:10;33.20;;;12.90;;
16979;SDS011;42288;52.182;21.156;2024-03-06T08:26:36;33.77;;;13.90;;
16979;SDS011;42288;52.182;21.156;2024-03-06T08:29:01;26.60;;;13.30;;
16979;SDS011;42288;52.182;21.156;2024-03-06T08:31:27;25.90;;;13.33;;
16979;SDS011;42288;52.182;21.156;2024-03-06T08:33:53;28.33;;;13.90;;
16979;SDS011;42288;52.182;21.156;2024-03-06T08:36:19;31.00;;;14.67;;
16979;SDS011;42288;52.182;21.156;2024-03-06T08:38:45;25.57;;;12.60;;
16979;SDS011;42288;52.182;21.156;2024-03-06T08:41:11;30.57;;;14.80;;
16979;SDS011;42288;52.182;21.156;2024-03-06T08:43:37;24.03;;;12.63;;
16979;SDS011;42288;52.182;21.156;2024-03-06T08:46:03;29.77;;;13.17;;
16979;SDS011;42288;52.182;21.156;2024-03-06T08:48:28;35.03;;;15.03;;
16979;SDS011;42288;52.182;21.156;2024-03-06T08:50:54;31.23;;;14.70;;
16979;SDS011;42288;52.182;21.156;2024-03-06T08:53:20;36.27;;;13.90;;
16979;SDS011;42288;52.182;21.156;2024-03-06T08:55:46;24.23;;;12.67;;
16979;SDS011;42288;52.182;21.156;2024-03-06T08:58:12;26.97;;;14.33;;
16979;SDS011;42288;52.182;21.156;2024-03-06T09:00:39;24.90;;;13.20;;
16979;SDS011;42288;52.182;21.156;2024-03-06T09:03:04;30.20;;;14.00;;
16979;SDS011;42288;52.182;21.156;2024-03-06T09:05:30;34.13;;;14.93;;
16979;SDS011;42288;52.182;21.156;2024-03-06T09:07:56;27.77;;;13.23;;
16979;SDS011;42288;52.182;21.156;2024-03-06T09:10:22;26.20;;;13.17;;
16979;SDS011;42288;52.182;21.156;2024-03-06T09:12:48;25.37;;;13.13;;
16979;SDS011;42288;52.182;21.156;2024-03-06T09:15:14;29.07;;;13.67;;
16979;SDS011;42288;52.182;21.156;2024-03-06T09:17:41;28.77;;;13.17;;
16979;SDS011;42288;52.182;21.156;2024-03-06T09:20:07;25.13;;;12.33;;
16979;SDS011;42288;52.182;21.156;2024-03-06T09:22:36;31.10;;;13.00;;
16979;SDS011;42288;52.182;21.156;2024-03-06T09:25:03;30.43;;;12.90;;
16979;SDS011;42288;52.182;21.156;2024-03-06T09:27:30;29.50;;;11.73;;
16979;SDS011;42288;52.182;21.156;2024-03-06T09:29:55;24.80;;;11.97;;
16979;SDS011;42288;52.182;21.156;2024-03-06T09:32:21;25.20;;;11.83;;
16979;SDS011;42288;52.182;21.156;2024-03-06T09:34:47;19.90;;;11.70;;
16979;SDS011;42288;52.182;21.156;2024-03-06T09:37:13;28.40;;;11.97;;
16979;SDS011;42288;52.182;21.156;2024-03-06T09:39:39;27.03;;;13.10;;
16979;SDS011;42288;52.182;21.156;2024-03-06T09:42:05;29.90;;;12.53;;
16979;SDS011;42288;52.182;21.156;2024-03-06T09:44:32;27.00;;;12.00;;
16979;SDS011;42288;52.182;21.156;2024-03-06T09:46:59;23.57;;;12.87;;
16979;SDS011;42288;52.182;21.156;2024-03-06T09:49:28;28.17;;;12.70;;
16979;SDS011;42288;52.182;21.156;2024-03-06T09:51:55;27.87;;;12.60;;
16979;SDS011;42288;52.182;21.156;2024-03-06T09:54:23;23.80;;;12.30;;
16979;SDS011;42288;52.182;21.156;2024-03-06T09:56:51;30.93;;;12.70;;
16979;SDS011;42288;52.182;21.156;2024-03-06T09:59:17;31.40;;;12.87;;
16979;SDS011;42288;52.182;21.156;2024-03-06T10:01:46;29.33;;;13.43;;
16979;SDS011;42288;52.182;21.156;2024-03-06T10:04:24;30.73;;;13.33;;
16979;SDS011;42288;52.182;21.156;2024-03-06T10:06:54;32.37;;;14.20;;
16979;SDS011;42288;52.182;21.156;2024-03-06T10:09:20;30.33;;;12.40;;
16979;SDS011;42288;52.182;21.156;2024-03-06T10:11:46;25.10;;;12.90;;
16979;SDS011;42288;52.182;21.156;2024-03-06T10:14:12;24.77;;;12.47;;
16979;SDS011;42288;52.182;21.156;2024-03-06T10:16:51;27.70;;;13.00;;
16979;SDS011;42288;52.182;21.156;2024-03-06T10:19:18;28.43;;;12.83;;
16979;SDS011;42288;52.182;21.156;2024-03-06T10:21:46;25.33;;;13.43;;
16979;SDS011;42288;52.182;21.156;2024-03-06T10:24:16;23.63;;;12.50;;
16979;SDS011;42288;52.182;21.156;2024-03-06T10:26:44;29.00;;;13.90;;
16979;SDS011;42288;52.182;21.156;2024-03-06T10:29:10;28.93;;;14.47;;
16979;SDS011;42288;52.182;21.156;2024-03-06T10:31:36;34.53;;;13.67;;
16979;SDS011;42288;52.182;21.156;2024-03-06T10:34:01;28.40;;;13.60;;
16979;SDS011;42288;52.182;21.156;2024-03-06T10:36:27;25.90;;;12.30;;
16979;SDS011;42288;52.182;21.156;2024-03-06T10:38:57;25.27;;;12.97;;
16979;SDS011;42288;52.182;21.156;2024-03-06T10:41:26;24.40;;;12.40;;
16979;SDS011;42288;52.182;21.156;2024-03-06T10:43:57;22.63;;;12.20;;
16979;SDS011;42288;52.182;21.156;2024-03-06T10:46:25;26.23;;;12.63;;
16979;SDS011;42288;52.182;21.156;2024-03-06T10:48:53;24.60;;;11.80;;
16979;SDS011;42288;52.182;21.156;2024-03-06T10:51:23;26.80;;;12.43;;
16979;SDS011;42288;52.182;21.156;2024-03-06T10:53:49;26.60;;;11.60;;
16979;SDS011;42288;52.182;21.156;2024-03-06T10:56:17;21.53;;;11.37;;
16979;SDS011;42288;52.182;21.156;2024-03-06T10:58:43;28.60;;;11.20;;
16979;SDS011;42288;52.182;21.156;2024-03-06T11:01:09;22.53;;;10.67;;
16979;SDS011;42288;52.182;21.156;2024-03-06T11:03:37;26.80;;;10.70;;
16979;SDS011;42288;52.182;21.156;2024-03-06T11:06:03;21.13;;;11.77;;
16979;SDS011;42288;52.182;21.156;2024-03-06T11:08:29;25.77;;;10.57;;
16979;SDS011;42288;52.182;21.156;2024-03-06T11:11:04;22.67;;;10.20;;
16979;SDS011;42288;52.182;21.156;2024-03-06T11:13:49;22.00;;;10.17;;
16979;SDS011;42288;52.182;21.156;2024-03-06T11:16:20;23.50;;;10.03;;
16979;SDS011;42288;52.182;21.156;2024-03-06T11:19:04;23.23;;;10.13;;
16979;SDS011;42288;52.182;21.156;2024-03-06T11:21:33;22.37;;;8.77;;
16979;SDS011;42288;52.182;21.156;2024-03-06T11:26:36;16.50;;;8.67;;
16979;SDS011;42288;52.182;21.156;2024-03-06T11:29:02;17.80;;;8.47;;
16979;SDS011;42288;52.182;21.156;2024-03-06T11:31:27;17.33;;;9.27;;
16979;SDS011;42288;52.182;21.156;2024-03-06T11:33:53;20.93;;;8.57;;
16979;SDS011;42288;52.182;21.156;2024-03-06T11:36:22;16.53;;;9.23;;
16979;SDS011;42288;52.182;21.156;2024-03-06T11:39:01;22.67;;;8.60;;
16979;SDS011;42288;52.182;21.156;2024-03-06T11:41:32;18.37;;;8.70;;
16979;SDS011;42288;52.182;21.156;2024-03-06T11:44:17;16.50;;;8.53;;
16979;SDS011;42288;52.182;21.156;2024-03-06T11:49:28;24.67;;;9.00;;
16979;SDS011;42288;52.182;21.156;2024-03-06T11:52:03;17.87;;;9.17;;
16979;SDS011;42288;52.182;21.156;2024-03-06T11:54:30;14.57;;;7.83;;
16979;SDS011;42288;52.182;21.156;2024-03-06T11:56:58;28.00;;;9.23;;
16979;SDS011;42288;52.182;21.156;2024-03-06T11:59:26;18.30;;;7.90;;
16979;SDS011;42288;52.182;21.156;2024-03-06T12:01:53;18.30;;;9.27;;
16979;SDS011;42288;52.182;21.156;2024-03-06T12:04:21;15.03;;;8.37;;
16979;SDS011;42288;52.182;21.156;2024-03-06T12:06:47;14.00;;;7.73;;
16979;SDS011;42288;52.182;21.156;2024-03-06T12:09:13;18.23;;;8.63;;
16979;SDS011;42288;52.182;21.156;2024-03-06T12:11:40;18.57;;;7.80;;
16979;SDS011;42288;52.182;21.156;2024-03-06T12:14:12;16.73;;;7.40;;
16979;SDS011;42288;52.182;21.156;2024-03-06T12:16:43;22.47;;;8.30;;
16979;SDS011;42288;52.182;21.156;2024-03-06T12:19:10;16.17;;;7.90;;
16979;SDS011;42288;52.182;21.156;2024-03-06T12:21:35;18.63;;;8.37;;
16979;SDS011;42288;52.182;21.156;2024-03-06T12:24:03;12.00;;;7.00;;
16979;SDS011;42288;52.182;21.156;2024-03-06T12:26:33;14.63;;;7.43;;
16979;SDS011;42288;52.182;21.156;2024-03-06T12:29:06;15.93;;;6.57;;
16979;SDS011;42288;52.182;21.156;2024-03-06T12:31:36;19.17;;;7.63;;
16979;SDS011;42288;52.182;21.156;2024-03-06T12:34:03;18.97;;;7.00;;
16979;SDS011;42288;52.182;21.156;2024-03-06T12:36:29;15.70;;;7.27;;
16979;SDS011;42288;52.182;21.156;2024-03-06T12:38:56;14.07;;;6.83;;
16979;SDS011;42288;52.182;21.156;2024-03-06T12:41:24;14.83;;;6.50;;
16979;SDS011;42288;52.182;21.156;2024-03-06T12:43:51;15.37;;;6.93;;
16979;SDS011;42288;52.182;21.156;2024-03-06T12:46:17;14.87;;;6.57;;
16979;SDS011;42288;52.182;21.156;2024-03-06T12:48:44;11.17;;;6.33;;
16979;SDS011;42288;52.182;21.156;2024-03-06T12:51:10;11.07;;;6.47;;
16979;SDS011;42288;52.182;21.156;2024-03-06T12:53:36;15.00;;;6.63;;
16979;SDS011;42288;52.182;21.156;2024-03-06T12:56:02;14.47;;;5.93;;
16979;SDS011;42288;52.182;21.156;2024-03-06T12:58:28;9.80;;;6.13;;
16979;SDS011;42288;52.182;21.156;2024-03-06T13:00:56;11.43;;;6.30;;
16979;SDS011;42288;52.182;21.156;2024-03-06T13:03:22;15.03;;;6.53;;
16979;SDS011;42288;52.182;21.156;2024-03-06T13:05:48;12.73;;;6.50;;
16979;SDS011;42288;52.182;21.156;2024-03-06T13:08:14;16.93;;;6.97;;
16979;SDS011;42288;52.182;21.156;2024-03-06T13:10:41;13.67;;;7.13;;
16979;SDS011;42288;52.182;21.156;2024-03-06T13:13:07;14.87;;;6.80;;
16979;SDS011;42288;52.182;21.156;2024-03-06T13:15:33;14.83;;;7.17;;
16979;SDS011;42288;52.182;21.156;2024-03-06T13:18:02;15.17;;;6.83;;
16979;SDS011;42288;52.182;21.156;2024-03-06T13:20:29;13.80;;;7.17;;
16979;SDS011;42288;52.182;21.156;2024-03-06T13:22:58;16.17;;;6.70;;
16979;SDS011;42288;52.182;21.156;2024-03-06T13:25:23;16.00;;;7.50;;
16979;SDS011;42288;52.182;21.156;2024-03-06T13:27:50;13.87;;;6.77;;
16979;SDS011;42288;52.182;21.156;2024-03-06T13:30:22;14.87;;;6.43;;
16979;SDS011;42288;52.182;21.156;2024-03-06T13:32:49;14.07;;;6.47;;
16979;SDS011;42288;52.182;21.156;2024-03-06T13:35:15;12.27;;;6.57;;
16979;SDS011;42288;52.182;21.156;2024-03-06T13:37:44;15.00;;;7.30;;
16979;SDS011;42288;52.182;21.156;2024-03-06T13:40:11;18.13;;;7.70;;
16979;SDS011;42288;52.182;21.156;2024-03-06T13:42:41;11.80;;;6.73;;
16979;SDS011;42288;52.182;21.156;2024-03-06T13:45:07;18.63;;;7.37;;
16979;SDS011;42288;52.182;21.156;2024-03-06T13:47:37;18.53;;;8.40;;
16979;SDS011;42288;52.182;21.156;2024-03-06T13:50:05;17.03;;;6.67;;
16979;SDS011;42288;52.182;21.156;2024-03-06T13:52:33;22.53;;;9.03;;
16979;SDS011;42288;52.182;21.156;2024-03-06T13:54:59;17.10;;;7.20;;
16979;SDS011;42288;52.182;21.156;2024-03-06T13:57:29;18.37;;;8.57;;
16979;SDS011;42288;52.182;21.156;2024-03-06T13:59:59;13.77;;;6.87;;
16979;SDS011;42288;52.182;21.156;2024-03-06T14:02:30;13.67;;;6.80;;
16979;SDS011;42288;52.182;21.156;2024-03-06T14:04:55;20.03;;;8.00;;
16979;SDS011;42288;52.182;21.156;2024-03-06T14:07:21;19.80;;;8.20;;
16979;SDS011;42288;52.182;21.156;2024-03-06T14:09:48;17.77;;;6.93;;
16979;SDS011;42288;52.182;21.156;2024-03-06T14:12:15;18.17;;;7.47;;
16979;SDS011;42288;52.182;21.156;2024-03-06T14:14:40;15.27;;;6.60;;